N82TWC PHTO-PHHN
Flight info
| Callsign | N82TWC |
|---|---|
| Flight time | 0h 44m |
| Altitude | VFR |
| Route | |
| Aircraft | C152/L-DOV/C |
Departure
| Time | 2026-04-21 16:37 |
|---|---|
| Airport | Hilo International Airport (PHTO) |
Arrival
| Time | 2026-04-21 17:21 |
|---|---|
| Airport | Hana Airport (PHHN) |
| Time | Latitude | Longitude | Altitude | Speed | Heading |
|---|---|---|---|---|---|
| 2026-04-21 16:37 | 19.87395 | -155.27313 | 6007 ft | 101 kts | 326° |
| 2026-04-21 16:37 | 19.88002 | -155.27715 | 5964 ft | 105 kts | 332° |
| 2026-04-21 16:37 | 19.88638 | -155.28114 | 5940 ft | 102 kts | 330° |
| 2026-04-21 16:37 | 19.89214 | -155.28493 | 6017 ft | 95 kts | 330° |
| 2026-04-21 16:38 | 19.89785 | -155.28878 | 5999 ft | 99 kts | 329° |
| 2026-04-21 16:38 | 19.90371 | -155.29282 | 5967 ft | 103 kts | 330° |
| 2026-04-21 16:38 | 19.90953 | -155.29706 | 5972 ft | 103 kts | 328° |
| 2026-04-21 16:38 | 19.91551 | -155.30120 | 5982 ft | 100 kts | 327° |
| 2026-04-21 16:39 | 19.92119 | -155.30560 | 5969 ft | 100 kts | 323° |
| 2026-04-21 16:39 | 19.92644 | -155.31025 | 6009 ft | 98 kts | 323° |
| 2026-04-21 16:39 | 19.93196 | -155.31467 | 6004 ft | 100 kts | 327° |
| 2026-04-21 16:39 | 19.93770 | -155.31878 | 6024 ft | 100 kts | 327° |
| 2026-04-21 16:40 | 19.94359 | -155.32293 | 6007 ft | 102 kts | 328° |
| 2026-04-21 16:40 | 19.94947 | -155.32701 | 6019 ft | 101 kts | 329° |
| 2026-04-21 16:40 | 19.95524 | -155.33090 | 6076 ft | 95 kts | 329° |
| 2026-04-21 16:40 | 19.96109 | -155.33464 | 6026 ft | 102 kts | 332° |
| 2026-04-21 16:41 | 19.96726 | -155.33826 | 6048 ft | 100 kts | 338° |
| 2026-04-21 16:41 | 19.97405 | -155.34055 | 5990 ft | 107 kts | 347° |
| 2026-04-21 16:41 | 19.98083 | -155.34331 | 5999 ft | 104 kts | 341° |
| 2026-04-21 16:41 | 19.98756 | -155.34624 | 5971 ft | 105 kts | 334° |
| 2026-04-21 16:42 | 19.99297 | -155.35107 | 6001 ft | 100 kts | 315° |
| 2026-04-21 16:42 | 19.99800 | -155.35634 | 5988 ft | 102 kts | 319° |
| 2026-04-21 16:42 | 20.00314 | -155.36133 | 6010 ft | 100 kts | 322° |
| 2026-04-21 16:42 | 20.00856 | -155.36601 | 6026 ft | 101 kts | 321° |
| 2026-04-21 16:43 | 20.01367 | -155.37131 | 6000 ft | 104 kts | 318° |
| 2026-04-21 16:43 | 20.02553 | -155.38196 | 6035 ft | 99 kts | 324° |
| 2026-04-21 16:43 | 20.04806 | -155.39538 | 6061 ft | 100 kts | 346° |
| 2026-04-21 16:43 | 20.05982 | -155.40331 | 6015 ft | 103 kts | 320° |
| 2026-04-21 16:44 | 20.07100 | -155.41280 | 6018 ft | 102 kts | 323° |
| 2026-04-21 16:44 | 20.08206 | -155.42144 | 6092 ft | 100 kts | 328° |
| 2026-04-21 16:44 | 20.09340 | -155.43087 | 6043 ft | 105 kts | 321° |
| 2026-04-21 16:44 | 20.10473 | -155.44072 | 5999 ft | 106 kts | 322° |
| 2026-04-21 16:45 | 20.11571 | -155.45050 | 6038 ft | 100 kts | 321° |
| 2026-04-21 16:45 | 20.12693 | -155.45990 | 6003 ft | 104 kts | 324° |
| 2026-04-21 16:45 | 20.13133 | -155.46352 | 5965 ft | 106 kts | 324° |
| 2026-04-21 16:45 | 20.14153 | -155.47216 | 6007 ft | 100 kts | 324° |
| 2026-04-21 16:46 | 20.15297 | -155.48161 | 5957 ft | 103 kts | 318° |
| 2026-04-21 16:46 | 20.16295 | -155.49197 | 6025 ft | 98 kts | 318° |
| 2026-04-21 16:46 | 20.17264 | -155.50259 | 6021 ft | 103 kts | 311° |
| 2026-04-21 16:46 | 20.18176 | -155.51476 | 5983 ft | 105 kts | 309° |
| 2026-04-21 16:47 | 20.19042 | -155.52692 | 6060 ft | 100 kts | 314° |
| 2026-04-21 16:47 | 20.20112 | -155.53702 | 6013 ft | 107 kts | 322° |
| 2026-04-21 16:47 | 20.21237 | -155.54727 | 6002 ft | 103 kts | 320° |
| 2026-04-21 16:47 | 20.22340 | -155.55742 | 5960 ft | 107 kts | 322° |
| 2026-04-21 16:48 | 20.23456 | -155.56750 | 5995 ft | 101 kts | 318° |
| 2026-04-21 16:48 | 20.24555 | -155.57715 | 6003 ft | 102 kts | 324° |
| 2026-04-21 16:48 | 20.25652 | -155.58666 | 6013 ft | 104 kts | 323° |
| 2026-04-21 16:48 | 20.25865 | -155.58858 | 6018 ft | 103 kts | 322° |
| 2026-04-21 16:50 | 20.26580 | -155.59504 | 6005 ft | 106 kts | 322° |
| 2026-04-21 16:50 | 20.27726 | -155.60533 | 5928 ft | 109 kts | 319° |
| 2026-04-21 16:50 | 20.28835 | -155.61630 | 5931 ft | 104 kts | 322° |
| 2026-04-21 16:50 | 20.29858 | -155.62679 | 5997 ft | 105 kts | 320° |
| 2026-04-21 16:51 | 20.30977 | -155.63742 | 5963 ft | 106 kts | 321° |
| 2026-04-21 16:51 | 20.32097 | -155.64709 | 5993 ft | 104 kts | 332° |
| 2026-04-21 16:51 | 20.33307 | -155.65541 | 5944 ft | 108 kts | 326° |
| 2026-04-21 16:51 | 20.34346 | -155.66650 | 5972 ft | 105 kts | 316° |
| 2026-04-21 16:52 | 20.35500 | -155.67593 | 5964 ft | 103 kts | 326° |
| 2026-04-21 16:52 | 20.36644 | -155.68540 | 5993 ft | 104 kts | 318° |
| 2026-04-21 16:52 | 20.37770 | -155.69578 | 5893 ft | 110 kts | 334° |
| 2026-04-21 16:52 | 20.38996 | -155.70426 | 5931 ft | 106 kts | 330° |
| 2026-04-21 16:53 | 20.40166 | -155.71367 | 5951 ft | 104 kts | 323° |
| 2026-04-21 16:53 | 20.40872 | -155.72026 | 5959 ft | 104 kts | 323° |
| 2026-04-21 16:53 | 20.40971 | -155.72116 | 5975 ft | 102 kts | 326° |
| 2026-04-21 16:53 | 20.42029 | -155.73145 | 5987 ft | 105 kts | 326° |
| 2026-04-21 16:54 | 20.43173 | -155.74122 | 5996 ft | 105 kts | 328° |
| 2026-04-21 16:54 | 20.44315 | -155.75117 | 6000 ft | 106 kts | 323° |
| 2026-04-21 16:54 | 20.45442 | -155.76174 | 5952 ft | 108 kts | 324° |
| 2026-04-21 16:54 | 20.46505 | -155.77238 | 5999 ft | 105 kts | 322° |
| 2026-04-21 16:55 | 20.47663 | -155.78232 | 5973 ft | 107 kts | 326° |
| 2026-04-21 16:55 | 20.48805 | -155.79199 | 6040 ft | 104 kts | 325° |
| 2026-04-21 16:55 | 20.49519 | -155.79808 | 6019 ft | 106 kts | 326° |
| 2026-04-21 16:55 | 20.50153 | -155.80333 | 6027 ft | 107 kts | 328° |
| 2026-04-21 16:56 | 20.51405 | -155.81244 | 5954 ft | 111 kts | 330° |
| 2026-04-21 16:56 | 20.52693 | -155.82110 | 5979 ft | 102 kts | 331° |
| 2026-04-21 16:56 | 20.53820 | -155.83068 | 6012 ft | 104 kts | 328° |
| 2026-04-21 16:56 | 20.54829 | -155.83925 | 6007 ft | 107 kts | 327° |
| 2026-04-21 16:57 | 20.55425 | -155.84399 | 5993 ft | 108 kts | 332° |
| 2026-04-21 16:57 | 20.56050 | -155.84840 | 5984 ft | 108 kts | 329° |
| 2026-04-21 16:57 | 20.56675 | -155.85278 | 5984 ft | 106 kts | 333° |
| 2026-04-21 16:57 | 20.57309 | -155.85675 | 6000 ft | 104 kts | 336° |
| 2026-04-21 16:58 | 20.57952 | -155.86057 | 5966 ft | 106 kts | 341° |
| 2026-04-21 16:58 | 20.58601 | -155.86411 | 6004 ft | 102 kts | 338° |
| 2026-04-21 16:58 | 20.59189 | -155.86834 | 5997 ft | 104 kts | 329° |
| 2026-04-21 16:58 | 20.59797 | -155.87272 | 5966 ft | 106 kts | 331° |
| 2026-04-21 16:59 | 20.60402 | -155.87769 | 5852 ft | 114 kts | 324° |
| 2026-04-21 16:59 | 20.60997 | -155.88361 | 5713 ft | 118 kts | 317° |
| 2026-04-21 16:59 | 20.61512 | -155.89003 | 5718 ft | 112 kts | 313° |
| 2026-04-21 16:59 | 20.61974 | -155.89641 | 5781 ft | 102 kts | 310° |
| 2026-04-21 17:00 | 20.62404 | -155.90239 | 5812 ft | 101 kts | 310° |
| 2026-04-21 17:00 | 20.62834 | -155.90850 | 5827 ft | 102 kts | 311° |
| 2026-04-21 17:00 | 20.63120 | -155.91255 | 5858 ft | 102 kts | 311° |
| 2026-04-21 17:00 | 20.63673 | -155.92063 | 5879 ft | 102 kts | 307° |
| 2026-04-21 17:01 | 20.63784 | -155.92233 | 5877 ft | 103 kts | 310° |
| 2026-04-21 17:01 | 20.64186 | -155.92863 | 5882 ft | 102 kts | 309° |
| 2026-04-21 17:01 | 20.64530 | -155.93412 | 5932 ft | 100 kts | 308° |
| 2026-04-21 17:01 | 20.64543 | -155.93432 | 5931 ft | 100 kts | 309° |
| 2026-04-21 17:02 | 20.64952 | -155.94055 | 5905 ft | 104 kts | 309° |
| 2026-04-21 17:02 | 20.65388 | -155.94660 | 5906 ft | 104 kts | 313° |
| 2026-04-21 17:02 | 20.66323 | -155.95812 | 5959 ft | 103 kts | 318° |
| 2026-04-21 17:02 | 20.67356 | -155.96823 | 5992 ft | 101 kts | 331° |
| 2026-04-21 17:03 | 20.68356 | -155.97958 | 5976 ft | 104 kts | 309° |
| 2026-04-21 17:03 | 20.68498 | -155.98171 | 5952 ft | 107 kts | 309° |
| 2026-04-21 17:04 | 20.69353 | -155.99919 | 5935 ft | 106 kts | 297° |
| 2026-04-21 17:04 | 20.71265 | -156.02458 | 5901 ft | 108 kts | 323° |
| 2026-04-21 17:04 | 20.73398 | -156.04837 | 5879 ft | 113 kts | 313° |
| 2026-04-21 17:05 | 20.74221 | -156.07768 | 6047 ft | 118 kts | 323° |
| 2026-04-21 17:05 | 20.74914 | -156.10769 | 6302 ft | 99 kts | 262° |
| 2026-04-21 17:05 | 20.75399 | -156.13526 | 6480 ft | 97 kts | 288° |
| 2026-04-21 17:05 | 20.75310 | -156.14711 | 6538 ft | 96 kts | 246° |
| 2026-04-21 17:06 | 20.75257 | -156.15652 | 6652 ft | 94 kts | 275° |
| 2026-04-21 17:06 | 20.75243 | -156.16302 | 6861 ft | 81 kts | 263° |
| 2026-04-21 17:06 | 20.75139 | -156.16895 | 6978 ft | 84 kts | 256° |
| 2026-04-21 17:06 | 20.75068 | -156.17514 | 7059 ft | 90 kts | 277° |
| 2026-04-21 17:07 | 20.75051 | -156.18174 | 7172 ft | 83 kts | 248° |
| 2026-04-21 17:07 | 20.74728 | -156.18626 | 7340 ft | 73 kts | 213° |
| 2026-04-21 17:07 | 20.74258 | -156.18863 | 7328 ft | 80 kts | 198° |
| 2026-04-21 17:07 | 20.73709 | -156.19104 | 7335 ft | 90 kts | 197° |
| 2026-04-21 17:08 | 20.73114 | -156.19248 | 7473 ft | 83 kts | 182° |
| 2026-04-21 17:08 | 20.72578 | -156.19001 | 7511 ft | 86 kts | 134° |
| 2026-04-21 17:08 | 20.72310 | -156.18442 | 7535 ft | 92 kts | 98° |
| 2026-04-21 17:08 | 20.72310 | -156.17791 | 7651 ft | 89 kts | 97° |
| 2026-04-21 17:09 | 20.71950 | -156.16581 | 7536 ft | 102 kts | 162° |
| 2026-04-21 17:09 | 20.71333 | -156.16388 | 7158 ft | 115 kts | 161° |
| 2026-04-21 17:10 | 20.70953 | -156.16253 | 6941 ft | 118 kts | 159° |
| 2026-04-21 17:10 | 20.70230 | -156.15843 | 6287 ft | 125 kts | 123° |
| 2026-04-21 17:10 | 20.69909 | -156.15181 | 6140 ft | 97 kts | 168° |
| 2026-04-21 17:10 | 20.69268 | -156.15062 | 5602 ft | 104 kts | 106° |
| 2026-04-21 17:11 | 20.68975 | -156.14440 | 5233 ft | 102 kts | 181° |
| 2026-04-21 17:11 | 20.68276 | -156.14655 | 4568 ft | 113 kts | 159° |
| 2026-04-21 17:11 | 20.67779 | -156.14080 | 4299 ft | 96 kts | 126° |
| 2026-04-21 17:11 | 20.67206 | -156.13680 | 3677 ft | 112 kts | 129° |
| 2026-04-21 17:12 | 20.66853 | -156.13003 | 3317 ft | 99 kts | 146° |
| 2026-04-21 17:12 | 20.66764 | -156.12334 | 3209 ft | 86 kts | 102° |
| 2026-04-21 17:12 | 20.66312 | -156.11810 | 2504 ft | 106 kts | 128° |
| 2026-04-21 17:12 | 20.66080 | -156.11067 | 2081 ft | 101 kts | 104° |
| 2026-04-21 17:13 | 20.65932 | -156.10385 | 1818 ft | 94 kts | 105° |
| 2026-04-21 17:13 | 20.65726 | -156.09783 | 1632 ft | 86 kts | 116° |
| 2026-04-21 17:13 | 20.65348 | -156.09271 | 1019 ft | 107 kts | 142° |
| 2026-04-21 17:13 | 20.64851 | -156.08637 | 532 ft | 100 kts | 108° |
| 2026-04-21 17:14 | 20.65130 | -156.08096 | 648 ft | 90 kts | 48° |
| 2026-04-21 17:14 | 20.65355 | -156.07484 | 710 ft | 96 kts | 96° |
| 2026-04-21 17:14 | 20.65201 | -156.06847 | 840 ft | 92 kts | 111° |
| 2026-04-21 17:14 | 20.65577 | -156.05675 | 688 ft | 102 kts | 53° |
| 2026-04-21 17:15 | 20.66532 | -156.04565 | 619 ft | 98 kts | 53° |
| 2026-04-21 17:15 | 20.66582 | -156.04503 | 623 ft | 98 kts | 53° |
| 2026-04-21 17:15 | 20.67204 | -156.03639 | 500 ft | 103 kts | 58° |
| 2026-04-21 17:16 | 20.68005 | -156.02516 | 791 ft | 92 kts | 60° |
| 2026-04-21 17:16 | 20.68611 | -156.01342 | 1039 ft | 90 kts | 60° |
| 2026-04-21 17:16 | 20.69652 | -156.00484 | 1035 ft | 101 kts | 32° |
| 2026-04-21 17:16 | 20.70800 | -155.99618 | 1046 ft | 99 kts | 40° |
| 2026-04-21 17:17 | 20.72117 | -155.99212 | 1139 ft | 107 kts | 19° |
| 2026-04-21 17:17 | 20.73536 | -155.98522 | 820 ft | 110 kts | 22° |
| 2026-04-21 17:17 | 20.74991 | -155.98704 | 977 ft | 90 kts | 358° |
| 2026-04-21 17:17 | 20.76299 | -155.98852 | 1137 ft | 102 kts | 352° |
| 2026-04-21 17:18 | 20.77216 | -155.99954 | 1180 ft | 103 kts | 294° |
| 2026-04-21 17:18 | 20.77619 | -156.01046 | 1189 ft | 107 kts | 292° |
| 2026-04-21 17:18 | 20.78080 | -156.01449 | 1301 ft | 98 kts | 354° |
| 2026-04-21 17:18 | 20.78206 | -156.01463 | 1261 ft | 102 kts | 0° |
| 2026-04-21 17:19 | 20.78946 | -156.01437 | 1129 ft | 111 kts | 8° |
| 2026-04-21 17:19 | 20.79725 | -156.01414 | 1062 ft | 109 kts | 4° |
| 2026-04-21 17:19 | 20.80297 | -156.01117 | 1242 ft | 90 kts | 62° |
| 2026-04-21 17:19 | 20.80394 | -156.00459 | 1240 ft | 96 kts | 91° |
| 2026-04-21 17:20 | 20.80385 | -155.99765 | 1175 ft | 87 kts | 94° |
| 2026-04-21 17:20 | 20.80179 | -155.99313 | 1192 ft | 67 kts | 169° |
| 2026-04-21 17:20 | 20.79699 | -155.99408 | 1003 ft | 73 kts | 195° |
| 2026-04-21 17:20 | 20.79488 | -155.99808 | 745 ft | 69 kts | 300° |
| 2026-04-21 17:21 | 20.79558 | -156.00355 | 310 ft | 77 kts | 270° |
| 2026-04-21 17:21 | 20.79562 | -156.00911 | 49 ft | 67 kts | 270° |
| 2026-04-21 17:21 | 20.79560 | -156.01272 | 54 ft | 29 kts | 269° |
| 2026-04-21 17:21 | 20.79533 | -156.01387 | 54 ft | 8 kts | 198° |
| 2026-04-21 17:22 | 20.79488 | -156.01406 | 56 ft | 4 kts | 179° |
| 2026-04-21 17:22 | 20.79483 | -156.01382 | 55 ft | 0 kts | 355° |
| 2026-04-21 17:22 | 20.79493 | -156.01384 | 55 ft | 0 kts | 12° |